Paradise Valley, Nevada Weather observations

Data are for 10 minute period ending at time listed.
 Day   Time   Solar   Ave.   Ave.  Ave.  Vector  Max.   Baro.   Total    
  of    of     Rad.   Air    Rel.  Wind   Wind   Wind  Press.  Precip.   
Year   Day            Temp.  Hum.  Speed  Dir.   Gust                    
2015   (PST)  Kw/m2    F      %     mph   deg.    mph    mb.     in.     
-------------------------------------------------------------------------
  63   15:50   0.37  -16.3   189    5.4    13     8.6   870.1    0.00 
  63   16:00   0.34  -17.0   189    6.4   356    10.2   870.1    0.00 
  63   16:10   0.30  -16.7   190    4.1   360     6.7   870.2    0.00 
  63   16:20   0.27  -16.5   190    2.9   340     6.7   870.2    0.00 
  63   16:30   0.23  -16.7   190    3.9     3     5.6   870.2    0.00 
  63   16:40   0.20  -16.9   189    4.0   351     5.8   870.2    0.00 
  63   16:50   0.16  -16.9   190    2.2    24     4.8   870.3    0.00 
  63   17:00   0.13  -17.5   190    3.4    32     5.6   870.4    0.00 
  63   17:10   0.10  -17.4   189    3.0   356     3.9   870.5    0.00 
  63   17:20   0.05  -18.1   188    3.1   356     3.8   870.6    0.00 
  63   17:30   0.02  -21.5   188    2.2   338     3.2   870.8    0.00 
  63   17:40   0.01  -24.7   187    2.4   298     3.0   871.0    0.00 
  63   17:50   0.01  -27.5   186    3.7   260     4.8   871.2    0.00 
  63   18:00   0.00  -32.2   183    4.3   260     4.9   871.4    0.00 
  63   18:10   0.00  -32.4   184    4.7   260     5.3   871.5    0.00 
  63   18:20   0.00  -33.2   183    5.6   253     6.1   871.6    0.00 
  63   18:30   0.00  -33.9   182    5.7   252     6.1   871.7    0.00 
  63   18:40   0.00  -34.5   182    5.9   255     6.8   871.8    0.00 
  63   18:50   0.00  -34.9   183    5.7   254     6.1   871.8    0.00 
  63   19:00   0.00  -37.3   180    5.2   251     6.0   871.9    0.00 
  63   19:10   0.00  -36.3   182    5.4   249     6.1   871.9    0.00 
  63   19:20   0.00  -36.5   181    5.1   247     5.5   871.9    0.00 
  63   19:30   0.00  -36.8   181    4.9   252     5.6   871.9    0.00 
  63   19:40   0.00  -37.0   182    5.4   258     6.1   871.9    0.00 
  63   19:50   0.00  -37.4   181    4.1   248     5.9   872.0    0.00 
  63   20:00   0.00  -39.3   181    3.6   232     5.3   872.0    0.00 
  63   20:10   0.00  -38.1   182    3.9   189     5.6   872.0    0.00 
  63   20:20   0.00  -38.2   181    5.3   205     6.4   872.1    0.00 
  63   20:30   0.00  -38.3   181    3.6   212     4.3   872.3    0.00 
  63   20:40   0.00  -38.4   181    4.1   208     4.9   872.5    0.00 
  63   20:50   0.00  -38.6   181    3.8   201     4.8   872.6    0.00 
  63   21:00   0.00  -40.7   178    4.5   238     5.7   872.7    0.00 
  63   21:10   0.00  -39.6   179    4.3   244     6.4   872.8    0.00 
  63   21:20   0.00  -39.3   180    4.0   282     5.5   872.9    0.00 
  63   21:30   0.00  -39.5   180    3.7   298     4.5   872.9    0.00 
  63   21:40   0.00  -39.6   181    3.3   293     4.4   873.0    0.00 
  63   21:50   0.00  -39.7   181    3.0   281     4.4   873.1    0.00 
  63   22:00   0.00  -41.8   179    1.6   291     2.2   873.2    0.00 
  63   22:10   0.00  -40.5   180    1.7   298     2.5   873.3    0.00 
  63   22:20   0.00  -40.2   181    1.8   296     2.9   873.3    0.00 
  63   22:30   0.00  -40.2   181    3.3   285     3.9   873.4    0.00 
  63   22:40   0.00  -40.1   182    3.4   280     4.4   873.5    0.00 
  63   22:50   0.00  -40.5   180    3.6   276     4.5   873.5    0.00 
  63   23:00   0.00  -42.4   180    4.0   284     4.7   873.5    0.00 
  63   23:10   0.00  -41.0   181    4.1   287     5.3   873.5    0.00 
  63   23:20   0.00  -40.9   181    2.6   303     3.7   873.6    0.00 
  63   23:30   0.00  -41.1   180    2.7   333     3.7   873.6    0.00 
  63   23:40   0.00  -41.3   178    1.9   336     2.6   873.6    0.00 
  63   23:50   0.00  -41.5   178    2.1   323     3.0   873.7    0.00 
  64    0:00   0.00  -43.4   178    2.0   321     2.9   873.8    0.00 
  64    0:10   0.00  -42.7   179    0.5   326     1.3   873.7    0.00 
  64    0:20   0.00  -42.3   178    0.7   315     0.9   873.8    0.00 
  64    0:30   0.00  -42.0   180    0.6   313     0.9   873.8    0.00 
  64    0:40   0.00  -42.1   179    0.1   314     0.6   873.8    0.00 
  64    0:50   0.00  -42.3   179    0.1   314     0.8   873.9    0.00 
  64    1:00   0.00  -44.3   178    0.8   313     1.3   874.0    0.00 
  64    1:10   0.00  -42.9   180    1.6   311     3.5   874.0    0.00 
  64    1:20   0.00  -42.8   179    2.4   172     3.5   874.0    0.00 
  64    1:30   0.00  -42.7   180    1.7   172     3.1   874.0    0.00 
  64    1:40   0.00  -42.8   180    2.4   157     3.2   874.0    0.00 
  64    1:50   0.00  -42.8   181    2.6   179     4.4   874.0    0.00 
  64    2:00   0.00  -45.1   178    3.6   209     4.6   874.0    0.00 
  64    2:10   0.00  -43.9   178    0.4   210     1.4   874.0    0.00 
  64    2:20   0.00  -43.6   179    0.2   209     1.2   874.1    0.00 
  64    2:30   0.00  -43.5   179    0.3   214     2.0   874.1    0.00 
  64    2:40   0.00  -43.7   179    3.1   258     4.3   874.1    0.00 
  64    2:50   0.00  -43.8   179    3.6   278     3.9   874.0    0.00 
  64    3:00   0.00  -46.0   178    3.4   278     4.1   873.9    0.00 
  64    3:10   0.00  -44.6   179    3.6   270     3.9   873.9    0.00 
  64    3:20   0.00  -44.2   179    2.9   281     3.2   873.9    0.00 
  64    3:30   0.00  -44.4   179    2.7   289     3.4   874.1    0.00 
  64    3:40   0.00  -44.3   179    2.4   316     3.0   874.1    0.00 
  64    3:50   0.00  -44.5   180    3.8   350     5.6   874.3    0.00 
  64    4:00   0.00  -46.7   178    5.2    10     6.6   874.4    0.00 
  64    4:10   0.00  -45.3   178    3.9   356     6.9   874.5    0.00 
  64    4:20   0.00  -45.0   179    3.4   327     4.4   874.5    0.00 
  64    4:30   0.00  -45.0   179    2.0   308     2.6   874.5    0.00 
  64    4:40   0.00  -45.2   178    3.5   277     4.7   874.4    0.00 
  64    4:50   0.00  -45.4   178    1.8   266     3.2   874.4    0.00 
  64    5:00   0.00  -47.4   178    2.4   230     3.6   874.4    0.00 
  64    5:10   0.00  -46.0   179    1.6   203     2.6   874.4    0.00 
  64    5:20   0.00  -45.8   179    3.6   222     5.4   874.5    0.00 
  64    5:30   0.00  -45.7   179    2.3   178     3.8   874.7    0.00 
  64    5:40   0.00  -45.7   180    1.1    12     3.0   874.8    0.00 
  64    5:50   0.00  -45.8   180    1.4    44     2.7   875.0    0.00 
  64    6:00   0.00  -48.0   177    0.5    44     1.3   875.1    0.00 
  64    6:10   0.00  -46.8   178    0.7    42     1.9   875.2    0.00 
  64    6:20   0.01  -46.4   178    2.1     7     3.3   875.2    0.00 
  64    6:30   0.01  -47.1   178    2.8   302     3.5   875.3    0.00 
  64    6:40   0.03  -45.0   179    3.3   298     3.8   875.4    0.00 
  64    6:50   0.06  -40.6   181    2.2   297     3.3   875.5    0.00 
  64    7:00   0.09  -32.0   185    0.8   249     2.9   875.6    0.00 
  64    7:10   0.12  -14.4   193    0.3   249     1.8   875.7    0.00 
  64    7:20   0.15  -14.7   193    1.4   253     2.3   875.9    0.00 
  64    7:30   0.18  -15.1   193    1.5   270     2.6   876.1    0.00 
  64    7:40   0.21  -15.2   192    0.3   270     1.0   876.3    0.00 
  64    7:50   0.25  -15.6   190    0.3   318     1.2   876.5    0.00 
  64    8:00   0.28  -16.4   190    0.9    10     2.2   876.6    0.00 
  64    8:10   0.32  -16.0   192    2.1     6     3.9   876.8    0.00 
  64    8:20   0.35  -16.1   191    1.6    11     3.1   877.0    0.00 
  64    8:30   0.38  -16.0   193    1.2     1     2.7   877.1    0.00 
  64    8:40   0.42  -16.1   193    1.0   347     2.8   877.1    0.00 
  64    8:50   0.45  -16.3   192    0.8   344     3.6   877.1    0.00 
  64    9:00   0.48  -16.9   191    2.2    46     3.6   877.2    0.00 
  64    9:10   0.51  -16.7   192    2.0    79     4.3   877.2    0.00 
  64    9:20   0.54  -16.8   191    2.0   122     3.7   877.1    0.00 
  64    9:30   0.57  -16.9   190    2.7   159     5.4   877.1    0.00 
  64    9:40   0.59  -16.8   191    2.9   161     4.9   877.1    0.00 
  64    9:50   0.62  -16.9   190    4.0   173     6.5   877.1    0.00 
  64   10:00   0.64  -17.4   189    4.5   155     8.0   877.0    0.00 
  64   10:10   0.66  -17.2   189    3.9   150     7.7   876.9    0.00 
  64   10:20   0.68  -17.1   189    4.6   181     7.8   876.8    0.00 
  64   10:30   0.70  -16.9   190    4.5   168     8.0   876.7    0.00 
  64   10:40   0.72  -16.7   190    4.5   147     8.3   876.7    0.00 
  64   10:50   0.74  -16.7   190    3.4   145     8.2   876.6    0.00 
  64   11:00   0.75  -17.1   189    3.0   112     7.5   876.4    0.00 
  64   11:10   0.76  -16.8   189    3.0   124     6.9   876.3    0.00 
  64   11:20   0.77  -16.2   190    2.5   130     6.4   876.1    0.00 
  64   11:30   0.78  -15.9   190    2.5   148     5.3   876.0    0.00 
  64   11:40   0.79  -15.8   189    4.8   121     7.5   875.8    0.00 
  64   11:50   0.79  -15.6   190    2.4   111     5.3   875.8    0.00 
  64   12:00   0.79  -15.8   190    2.4   131     6.4   875.6    0.00 
  64   12:10   0.79  -15.2   190    3.6   165     7.8   875.6    0.00 
  64   12:20   0.79  -14.9   190    4.7   176     9.8   875.5    0.00 
  64   12:30   0.78  -14.9   189    4.0   167    11.0   875.3    0.00 
  64   12:40   0.77  -14.5   190    4.3   202    10.2   875.1    0.00 
  64   12:50   0.77  -14.5   189    6.2   173    12.1   874.9    0.00 
  64   13:00   0.77  -14.8   189    4.1   175     9.2   874.8    0.00 
  64   13:10   0.75  -14.6   188    8.2   207    15.5   874.7    0.00 
  64   13:20   0.74  -14.6   188    8.9   190    14.1   874.7    0.00 
  64   13:30   0.72  -14.6   189    9.0   186    14.4   874.6    0.00 
  64   13:40   0.71  -14.7   189   10.7   197    15.1   874.6    0.00 
  64   13:50   0.69  -15.0   189   10.8   214    15.3   874.5    0.00 
  64   14:00   0.68  -15.6   188   11.2   202    16.5   874.4    0.00 
  64   14:10   0.65  -15.6   189    9.6   201    14.3   874.4    0.00 
  64   14:20   0.62  -15.6   189    8.5   205    15.4   874.4    0.00 
  64   14:30   0.61  -15.7   189    9.1   215    14.0   874.4    0.00 
  64   14:40   0.58  -15.7   189    8.4   228    15.6   874.4    0.00 
  64   14:50   0.56  -15.7   189    8.8   201    13.3   874.3    0.00 
  64   15:00   0.53  -16.4   188    8.3   223    12.4   874.3    0.00 
  64   15:10   0.49  -16.1   189    6.2   227    11.8   874.4    0.00 
  64   15:20   0.47  -16.0   189    5.2   250    10.5   874.3    0.00 
  64   15:30   0.44  -16.0   188    5.8   246    10.1   874.3    0.00 
  64   15:40   0.41  -16.0   188    6.4   216    10.4   874.3    0.00 

Return to Paradise Valley graphs page.


Western Regional Climate Center,wrcc@dri.edu